Aviation Digital Data Service (ADDS)

Output produced by METARs form (1238 UTC 03 March 2015)
found at http://www.aviationweather.gov/adds/metars/
 
KLGA 031123Z 0312/0412 35006KT P6SM BKN250 
     FM031400 VRB04KT P6SM SCT150 BKN250 
     FM031700 16007KT P6SM SCT020 BKN120 
     FM032100 16010KT 4SM -SN BKN025 OVC060 
     FM040000 17012KT 2SM -SNPL OVC009 
     FM040400 18010KT 1SM RA OVC004 
     FM040600 23010KT 1SM -RA BR OVC004 WS020/24055KT 
     FM041100 25008KT 3SM -RA BR OVC007